Time;durP1;ratioP1;P1;durP2;ratioP2;P2;SDS_P1;SDS_P2;PMS_P1;PMS_P2;Temp;Humidity;BMP_temperature;BMP_pressure;BME280_temperature;BME280_humidity;BME280_pressure;Samples;Min_cycle;Max_cycle;Signal;HPM_P1;HPM_P2
2022/04/18 00:01:18;;;;;;;4.30;1.77;;;;;;;;;;5112258;28;20253;-75
2022/04/18 00:03:43;;;;;;;3.25;1.60;;;;;;;;;;5112096;28;20459;-75
2022/04/18 00:06:09;;;;;;;5.90;1.60;;;;;;;;;;5111972;28;20032;-66
2022/04/18 00:08:34;;;;;;;6.50;1.83;;;;;;;;;;5112206;27;20026;-73
2022/04/18 00:11:02;;;;;;;4.38;2.03;;;;;;;;;;5112051;28;20541;-73
2022/04/18 00:13:28;;;;;;;3.80;1.83;;;;;;;;;;5112160;28;20024;-72
2022/04/18 00:15:54;;;;;;;5.45;1.88;;;;;;;;;;5111635;28;20402;-68
2022/04/18 00:18:19;;;;;;;5.78;1.90;;;;;;;;;;5111916;28;20027;-68
2022/04/18 00:20:44;;;;;;;4.45;2.10;;;;;;;;;;5111190;28;20069;-72
2022/04/18 00:23:10;;;;;;;3.95;1.92;;;;;;;;;;5112093;28;20055;-67
2022/04/18 00:25:36;;;;;;;6.28;2.03;;;;;;;;;;5111331;28;20124;-69
2022/04/18 00:28:01;;;;;;;5.85;2.05;;;;;;;;;;5111662;28;20468;-68
2022/04/18 00:30:26;;;;;;;3.83;1.77;;;;;;;;;;5111623;28;20034;-70
2022/04/18 00:32:52;;;;;;;5.50;1.92;;;;;;;;;;5111638;28;20027;-72
2022/04/18 00:35:17;;;;;;;4.40;1.90;;;;;;;;;;5111315;28;20020;-73
2022/04/18 00:37:43;;;;;;;4.82;1.80;;;;;;;;;;5111613;28;20104;-70
2022/04/18 00:40:11;;;;;;;4.57;2.08;;;;;;;;;;5111630;28;20520;-71
2022/04/18 00:42:36;;;;;;;4.97;2.00;;;;;;;;;;5111495;28;20106;-72
2022/04/18 00:45:02;;;;;;;5.72;1.90;;;;;;;;;;5110961;28;20534;-71
2022/04/18 00:47:28;;;;;;;6.88;1.90;;;;;;;;;;5111281;28;20435;-73
2022/04/18 00:49:53;;;;;;;5.28;2.10;;;;;;;;;;5111634;28;20034;-67
2022/04/18 00:52:19;;;;;;;4.00;1.80;;;;;;;;;;5111299;28;20412;-68
2022/04/18 00:54:47;;;;;;;5.20;1.90;;;;;;;;;;5110950;28;20118;-72
2022/04/18 00:57:13;;;;;;;5.00;2.00;;;;;;;;;;5110881;28;20472;-74
2022/04/18 00:59:38;;;;;;;5.68;1.80;;;;;;;;;;5109580;28;20107;-68
2022/04/18 01:02:05;;;;;;;4.72;1.83;;;;;;;;;;5111029;28;20406;-72
2022/04/18 01:04:31;;;;;;;5.03;1.90;;;;;;;;;;5111173;28;20027;-74
2022/04/18 01:06:58;;;;;;;4.72;1.95;;;;;;;;;;5110797;28;20047;-72
2022/04/18 01:09:24;;;;;;;6.93;1.83;;;;;;;;;;5110859;28;20256;-70
2022/04/18 01:11:50;;;;;;;4.95;2.00;;;;;;;;;;5110899;28;20618;-68
2022/04/18 01:14:15;;;;;;;8.25;1.90;;;;;;;;;;5110694;28;20034;-68
2022/04/18 01:16:42;;;;;;;7.20;2.03;;;;;;;;;;5110562;28;20106;-73
2022/04/18 01:19:09;;;;;;;4.10;2.08;;;;;;;;;;5111254;28;20106;-76
2022/04/18 01:21:34;;;;;;;4.65;1.90;;;;;;;;;;5110734;28;20069;-72
2022/04/18 01:24:00;;;;;;;4.38;1.85;;;;;;;;;;5110589;28;20023;-68
2022/04/18 01:29:09;;;;;;;5.53;1.92;;;;;;;;;;5110479;28;20038;-68
2022/04/18 01:31:38;;;;;;;4.15;2.03;;;;;;;;;;5109975;28;20024;-73
2022/04/18 01:34:06;;;;;;;2.83;1.88;;;;;;;;;;5110367;28;20024;-74
2022/04/18 01:36:32;;;;;;;3.97;1.80;;;;;;;;;;5110352;28;20061;-74
2022/04/18 01:38:58;;;;;;;4.05;1.80;;;;;;;;;;5110548;28;20047;-74
2022/04/18 01:41:24;;;;;;;4.45;1.98;;;;;;;;;;5110634;28;20115;-68
2022/04/18 01:43:50;;;;;;;7.95;2.22;;;;;;;;;;5110488;28;20448;-73
2022/04/18 01:46:16;;;;;;;4.53;1.80;;;;;;;;;;5110066;28;20024;-73
2022/04/18 01:48:43;;;;;;;4.22;1.80;;;;;;;;;;5110152;28;20092;-72
2022/04/18 01:51:08;;;;;;;5.90;2.22;;;;;;;;;;5110333;28;20039;-72
2022/04/18 01:53:34;;;;;;;5.38;1.98;;;;;;;;;;5110461;28;20028;-71
2022/04/18 01:56:00;;;;;;;5.28;1.88;;;;;;;;;;5110445;28;20031;-71
2022/04/18 01:58:26;;;;;;;7.03;2.20;;;;;;;;;;5110505;28;20038;-73
2022/04/18 02:00:51;;;;;;;8.98;2.05;;;;;;;;;;5109072;28;20031;-74
2022/04/18 02:03:17;;;;;;;3.28;2.00;;;;;;;;;;5110195;28;20038;-69
2022/04/18 02:05:43;;;;;;;5.60;2.08;;;;;;;;;;5110035;28;20047;-69
2022/04/18 02:08:09;;;;;;;5.88;1.80;;;;;;;;;;5110139;28;20057;-69
2022/04/18 02:10:34;;;;;;;7.18;2.15;;;;;;;;;;5110465;28;20032;-74
2022/04/18 02:13:00;;;;;;;5.90;2.28;;;;;;;;;;5110255;28;20470;-75
2022/04/18 02:15:26;;;;;;;5.20;2.17;;;;;;;;;;5109861;28;20460;-72
2022/04/18 02:17:51;;;;;;;5.32;2.40;;;;;;;;;;5110292;28;20079;-73
2022/04/18 02:20:17;;;;;;;8.60;2.50;;;;;;;;;;5109949;28;20019;-67
2022/04/18 02:22:42;;;;;;;5.38;2.35;;;;;;;;;;5109906;28;20032;-73
2022/04/18 02:25:08;;;;;;;6.82;2.33;;;;;;;;;;5110057;28;20040;-72
2022/04/18 02:27:34;;;;;;;7.38;2.30;;;;;;;;;;5109774;28;20059;-68
2022/04/18 02:29:59;;;;;;;7.82;2.20;;;;;;;;;;5109838;28;20058;-74
2022/04/18 02:35:09;;;;;;;8.30;2.28;;;;;;;;;;5110049;28;20035;-67
2022/04/18 02:37:35;;;;;;;8.02;2.42;;;;;;;;;;5109766;28;20019;-74
2022/04/18 02:40:00;;;;;;;6.93;2.60;;;;;;;;;;5109909;28;20031;-73
2022/04/18 02:42:26;;;;;;;5.65;2.55;;;;;;;;;;5110987;28;20511;-70
2022/04/18 02:44:51;;;;;;;4.63;2.40;;;;;;;;;;5113847;27;20551;-72
2022/04/18 02:47:17;;;;;;;8.27;2.83;;;;;;;;;;5113592;28;20528;-68
2022/04/18 02:49:42;;;;;;;5.80;2.40;;;;;;;;;;5113815;28;20016;-67
2022/04/18 02:52:08;;;;;;;6.65;2.30;;;;;;;;;;5113555;28;20030;-74
2022/04/18 02:54:33;;;;;;;5.18;2.60;;;;;;;;;;5113489;28;20020;-74
2022/04/18 02:56:59;;;;;;;5.85;2.53;;;;;;;;;;5113047;27;20028;-73
2022/04/18 02:59:24;;;;;;;4.15;2.53;;;;;;;;;;5113164;28;20103;-72
2022/04/18 03:01:50;;;;;;;6.90;2.58;;;;;;;;;;5113365;28;20027;-69
2022/04/18 03:04:15;;;;;;;7.85;2.80;;;;;;;;;;5113565;28;20024;-69
2022/04/18 03:06:40;;;;;;;8.93;2.60;;;;;;;;;;5113178;28;20031;-73
2022/04/18 03:09:06;;;;;;;7.90;2.60;;;;;;;;;;5113710;28;20016;-70
2022/04/18 03:11:31;;;;;;;8.73;2.67;;;;;;;;;;5113115;28;20050;-68
2022/04/18 03:13:57;;;;;;;6.90;2.67;;;;;;;;;;5113139;27;20027;-69
2022/04/18 03:16:23;;;;;;;6.40;2.47;;;;;;;;;;5113108;28;20043;-74
2022/04/18 03:18:49;;;;;;;7.18;2.40;;;;;;;;;;5113302;28;20477;-76
2022/04/18 03:21:16;;;;;;;7.55;2.28;;;;;;;;;;5113055;28;20043;-68
2022/04/18 03:23:44;;;;;;;5.82;2.13;;;;;;;;;;5113120;28;20038;-67
2022/04/18 03:26:09;;;;;;;6.68;2.53;;;;;;;;;;5112694;28;20047;-74
2022/04/18 03:28:35;;;;;;;5.00;2.10;;;;;;;;;;5112829;27;20031;-72
2022/04/18 03:31:00;;;;;;;7.38;2.17;;;;;;;;;;5112666;28;20024;-73
2022/04/18 03:33:26;;;;;;;8.65;2.60;;;;;;;;;;5113227;28;20039;-73
2022/04/18 03:41:19;;;;;;;6.45;2.00;;;;;;;;;;5112965;28;20076;-73
2022/04/18 03:43:45;;;;;;;6.40;2.28;;;;;;;;;;5112582;28;20019;-71
2022/04/18 03:46:10;;;;;;;7.28;2.50;;;;;;;;;;5112021;28;20403;-72
2022/04/18 03:48:36;;;;;;;5.40;2.40;;;;;;;;;;5112572;28;20034;-68
2022/04/18 03:51:01;;;;;;;6.55;2.20;;;;;;;;;;5112404;28;20020;-69
2022/04/18 03:53:26;;;;;;;9.57;2.50;;;;;;;;;;5111910;28;20028;-73
2022/04/18 03:55:52;;;;;;;8.48;2.30;;;;;;;;;;5111920;28;20444;-68
2022/04/18 03:58:17;;;;;;;6.40;1.95;;;;;;;;;;5112746;28;20529;-73
2022/04/18 04:00:43;;;;;;;6.57;2.30;;;;;;;;;;5112265;28;20560;-72
2022/04/18 04:03:10;;;;;;;6.45;2.10;;;;;;;;;;5112235;28;20532;-72
2022/04/18 04:05:38;;;;;;;7.05;2.17;;;;;;;;;;5112027;28;20042;-72
2022/04/18 04:08:05;;;;;;;6.53;2.35;;;;;;;;;;5111713;28;20024;-72
2022/04/18 04:10:30;;;;;;;11.90;2.40;;;;;;;;;;5112164;28;20050;-72
2022/04/18 04:12:56;;;;;;;6.47;2.20;;;;;;;;;;5111974;28;20399;-73
2022/04/18 04:15:22;;;;;;;6.38;1.98;;;;;;;;;;5112255;28;20073;-73
2022/04/18 04:17:47;;;;;;;11.13;2.17;;;;;;;;;;5111892;28;20428;-69
2022/04/18 04:20:12;;;;;;;7.93;2.00;;;;;;;;;;5111772;28;20024;-73
2022/04/18 04:22:43;;;;;;;7.10;1.95;;;;;;;;;;5111618;28;20054;-67
2022/04/18 04:25:09;;;;;;;6.78;1.63;;;;;;;;;;5111500;28;20070;-70
2022/04/18 04:27:34;;;;;;;5.70;1.80;;;;;;;;;;5111496;28;20063;-73
2022/04/18 04:30:00;;;;;;;9.18;1.90;;;;;;;;;;5111624;27;20110;-68
2022/04/18 04:32:25;;;;;;;11.13;1.80;;;;;;;;;;5112082;28;20028;-75
2022/04/18 04:34:51;;;;;;;8.90;1.67;;;;;;;;;;5111603;28;20268;-70
2022/04/18 04:37:17;;;;;;;8.10;1.73;;;;;;;;;;5111373;28;20126;-67
2022/04/18 04:39:42;;;;;;;4.90;1.55;;;;;;;;;;5111427;28;20453;-71
2022/04/18 04:42:08;;;;;;;10.55;1.90;;;;;;;;;;5111492;28;20027;-74
2022/04/18 04:44:33;;;;;;;7.05;1.80;;;;;;;;;;5111244;28;20019;-72
2022/04/18 04:46:59;;;;;;;4.53;1.50;;;;;;;;;;5111216;28;20023;-73
2022/04/18 04:49:24;;;;;;;7.05;1.80;;;;;;;;;;5111818;28;20020;-74
2022/04/18 04:51:50;;;;;;;10.73;1.90;;;;;;;;;;5111457;28;20284;-69
2022/04/18 04:54:15;;;;;;;6.72;1.42;;;;;;;;;;5111338;28;20110;-74
2022/04/18 04:56:40;;;;;;;7.55;1.40;;;;;;;;;;5110902;28;20059;-72
2022/04/18 04:59:06;;;;;;;4.22;1.35;;;;;;;;;;5111144;28;20048;-70
2022/04/18 05:01:33;;;;;;;6.00;1.25;;;;;;;;;;5111098;28;20084;-76
2022/04/18 05:03:58;;;;;;;4.22;1.35;;;;;;;;;;5110996;28;20562;-73
2022/04/18 05:06:24;;;;;;;8.60;1.60;;;;;;;;;;5111011;28;20601;-67
2022/04/18 05:08:49;;;;;;;9.38;2.28;;;;;;;;;;5110876;28;20122;-71
2022/04/18 05:11:15;;;;;;;7.53;2.75;;;;;;;;;;5110990;28;20107;-71
2022/04/18 05:13:40;;;;;;;10.65;2.40;;;;;;;;;;5110854;28;20080;-74
2022/04/18 05:16:05;;;;;;;6.22;2.00;;;;;;;;;;5110698;28;20034;-73
2022/04/18 05:18:31;;;;;;;6.45;1.58;;;;;;;;;;5110767;28;20027;-73
2022/04/18 05:20:57;;;;;;;6.82;1.60;;;;;;;;;;5111155;28;20112;-71
2022/04/18 05:23:22;;;;;;;4.10;1.55;;;;;;;;;;5111123;28;20024;-73
2022/04/18 05:25:48;;;;;;;6.85;1.70;;;;;;;;;;5110611;28;20495;-68
2022/04/18 05:28:13;;;;;;;8.73;1.75;;;;;;;;;;5110579;28;20035;-74
2022/04/18 05:30:39;;;;;;;6.35;1.40;;;;;;;;;;5110477;28;20059;-68
2022/04/18 05:33:06;;;;;;;7.28;1.67;;;;;;;;;;5110515;28;20047;-69
2022/04/18 05:35:35;;;;;;;6.32;1.58;;;;;;;;;;5110507;28;20457;-72
2022/04/18 05:38:00;;;;;;;5.97;1.80;;;;;;;;;;5110344;28;20028;-70
2022/04/18 05:40:26;;;;;;;5.75;1.58;;;;;;;;;;5110853;28;20022;-71
2022/04/18 05:42:51;;;;;;;7.00;1.90;;;;;;;;;;5110886;28;20027;-73
2022/04/18 05:45:17;;;;;;;6.88;1.63;;;;;;;;;;5110241;28;20104;-69
2022/04/18 05:47:42;;;;;;;6.00;2.05;;;;;;;;;;5109824;28;20039;-68
2022/04/18 05:50:08;;;;;;;6.88;1.67;;;;;;;;;;5110398;28;20028;-72
2022/04/18 05:52:33;;;;;;;7.00;2.17;;;;;;;;;;5110380;28;20023;-71
2022/04/18 05:54:59;;;;;;;4.40;1.70;;;;;;;;;;5110269;28;20122;-73
2022/04/18 05:57:24;;;;;;;7.47;1.90;;;;;;;;;;5110219;28;20024;-71
2022/04/18 05:59:50;;;;;;;4.30;1.33;;;;;;;;;;5110289;28;20028;-68
2022/04/18 06:02:15;;;;;;;5.40;1.60;;;;;;;;;;5110274;28;20020;-69
2022/04/18 06:04:41;;;;;;;7.72;1.60;;;;;;;;;;5110046;28;20023;-73
2022/04/18 06:07:07;;;;;;;8.10;1.75;;;;;;;;;;5108457;28;20462;-73
2022/04/18 06:09:32;;;;;;;3.88;1.30;;;;;;;;;;5110227;28;20055;-72
2022/04/18 06:11:58;;;;;;;6.47;1.63;;;;;;;;;;5110158;28;20031;-72
2022/04/18 06:14:24;;;;;;;7.90;1.80;;;;;;;;;;5110129;28;20111;-71
2022/04/18 06:16:49;;;;;;;6.13;1.60;;;;;;;;;;5110169;28;20027;-68
2022/04/18 06:19:14;;;;;;;8.20;1.77;;;;;;;;;;5114000;28;20019;-69
2022/04/18 06:21:40;;;;;;;8.57;1.70;;;;;;;;;;5113884;28;20028;-69
2022/04/18 06:24:06;;;;;;;7.90;1.63;;;;;;;;;;5113821;28;20015;-71
2022/04/18 06:26:31;;;;;;;6.80;1.48;;;;;;;;;;5113975;28;20027;-72
2022/04/18 06:29:00;;;;;;;4.80;1.70;;;;;;;;;;5113941;28;20019;-67
2022/04/18 06:31:25;;;;;;;9.18;2.03;;;;;;;;;;5113986;28;20110;-67
2022/04/18 06:33:52;;;;;;;7.38;1.52;;;;;;;;;;5114147;28;20119;-68
2022/04/18 06:36:17;;;;;;;7.38;1.67;;;;;;;;;;5114127;28;20278;-68
2022/04/18 06:38:43;;;;;;;5.22;1.65;;;;;;;;;;5113839;28;20572;-74
2022/04/18 06:41:09;;;;;;;6.95;1.95;;;;;;;;;;5113819;28;20047;-73
2022/04/18 06:43:35;;;;;;;5.72;1.75;;;;;;;;;;5113814;28;20083;-73
2022/04/18 06:46:00;;;;;;;3.38;1.15;;;;;;;;;;5114003;28;20114;-71
2022/04/18 06:48:26;;;;;;;6.28;1.50;;;;;;;;;;5113721;28;20270;-68
2022/04/18 06:50:51;;;;;;;6.88;1.40;;;;;;;;;;5113666;28;20080;-67
2022/04/18 06:53:17;;;;;;;7.28;1.52;;;;;;;;;;5113556;28;20051;-75
2022/04/18 06:58:27;;;;;;;4.25;1.58;;;;;;;;;;5113438;28;20030;-73
2022/04/18 07:00:52;;;;;;;6.30;1.42;;;;;;;;;;5113272;28;20024;-73
2022/04/18 07:03:18;;;;;;;6.22;1.38;;;;;;;;;;5113592;28;20418;-74
2022/04/18 07:05:44;;;;;;;6.65;1.60;;;;;;;;;;5113740;27;20380;-74
2022/04/18 07:08:09;;;;;;;7.05;1.58;;;;;;;;;;5113122;28;20059;-68
2022/04/18 07:10:35;;;;;;;5.90;1.30;;;;;;;;;;5113431;28;20027;-68
2022/04/18 07:13:00;;;;;;;4.15;1.50;;;;;;;;;;5113162;28;20028;-67
2022/04/18 07:15:26;;;;;;;6.70;1.60;;;;;;;;;;5112957;28;20024;-73
2022/04/18 07:17:52;;;;;;;6.65;1.60;;;;;;;;;;5112882;28;20076;-72
2022/04/18 07:20:17;;;;;;;6.25;1.60;;;;;;;;;;5113330;28;20024;-72
2022/04/18 07:22:43;;;;;;;5.75;1.80;;;;;;;;;;5113102;28;20055;-70
2022/04/18 07:25:08;;;;;;;5.72;1.52;;;;;;;;;;5112882;28;20045;-69
2022/04/18 07:27:34;;;;;;;7.88;1.60;;;;;;;;;;5111315;28;20371;-70
2022/04/18 07:30:00;;;;;;;8.38;1.70;;;;;;;;;;5111184;28;20051;-68
2022/04/18 07:32:25;;;;;;;8.50;1.60;;;;;;;;;;5112642;28;20482;-68
2022/04/18 07:34:50;;;;;;;6.90;1.60;;;;;;;;;;5112731;28;20028;-72
2022/04/18 07:37:16;;;;;;;5.80;1.40;;;;;;;;;;5112569;28;20031;-70
2022/04/18 07:39:41;;;;;;;6.35;1.60;;;;;;;;;;5113135;28;20026;-74
2022/04/18 07:42:07;;;;;;;6.07;1.80;;;;;;;;;;5113162;28;20026;-71
2022/04/18 07:44:32;;;;;;;9.85;1.77;;;;;;;;;;5112260;28;20479;-72
2022/04/18 07:46:58;;;;;;;10.55;1.60;;;;;;;;;;5112014;28;20027;-74
2022/04/18 07:49:24;;;;;;;6.25;1.70;;;;;;;;;;5112593;28;20030;-68
2022/04/18 07:51:50;;;;;;;7.93;1.83;;;;;;;;;;5112354;28;20015;-69
2022/04/18 07:54:17;;;;;;;8.48;1.65;;;;;;;;;;5112406;28;20403;-73
2022/04/18 07:56:43;;;;;;;7.63;1.60;;;;;;;;;;5112436;28;20031;-75
2022/04/18 07:59:10;;;;;;;4.80;1.48;;;;;;;;;;5111923;28;20031;-72
2022/04/18 08:01:35;;;;;;;9.02;1.60;;;;;;;;;;5112308;28;20107;-68
2022/04/18 08:04:02;;;;;;;8.57;1.90;;;;;;;;;;5112182;28;20111;-69
2022/04/18 08:06:28;;;;;;;5.80;1.60;;;;;;;;;;5112052;28;20031;-68
2022/04/18 08:08:54;;;;;;;6.38;1.52;;;;;;;;;;5112049;28;20691;-73
2022/04/18 08:11:20;;;;;;;9.13;1.83;;;;;;;;;;5112208;28;20063;-73
2022/04/18 08:13:47;;;;;;;9.25;1.80;;;;;;;;;;5112015;28;20598;-71
2022/04/18 08:16:13;;;;;;;5.93;1.40;;;;;;;;;;5112237;28;20038;-68
2022/04/18 08:18:39;;;;;;;6.85;1.90;;;;;;;;;;5112008;27;20031;-72
2022/04/18 08:21:09;;;;;;;7.78;1.60;;;;;;;;;;5111858;28;20254;-69
2022/04/18 08:23:35;;;;;;;9.43;1.77;;;;;;;;;;5111831;27;20034;-74
2022/04/18 08:26:04;;;;;;;5.78;1.85;;;;;;;;;;5111431;28;20403;-74
2022/04/18 08:28:30;;;;;;;7.13;1.70;;;;;;;;;;5111861;28;20073;-69
2022/04/18 08:30:56;;;;;;;5.80;1.60;;;;;;;;;;5111826;28;20107;-69
2022/04/18 08:33:22;;;;;;;7.15;1.50;;;;;;;;;;5111811;28;20175;-69
2022/04/18 08:35:47;;;;;;;6.20;1.58;;;;;;;;;;5111954;28;20027;-73
2022/04/18 08:38:13;;;;;;;7.80;1.60;;;;;;;;;;5111391;28;20035;-73
2022/04/18 08:40:42;;;;;;;10.02;1.92;;;;;;;;;;5111571;28;20027;-72
2022/04/18 08:43:08;;;;;;;8.60;1.70;;;;;;;;;;5111464;28;20024;-74
2022/04/18 08:45:35;;;;;;;7.57;1.60;;;;;;;;;;5111294;28;20043;-68
2022/04/18 08:53:45;;;;;;;11.48;1.90;;;;;;;;;;5088149;28;20035;-69
2022/04/18 08:56:11;;;;;;;6.60;1.60;;;;;;;;;;5106376;28;20036;-69
2022/04/18 08:58:37;;;;;;;7.30;1.63;;;;;;;;;;5110884;28;20084;-71
2022/04/18 09:01:03;;;;;;;6.00;1.58;;;;;;;;;;5111059;28;20023;-72
2022/04/18 09:03:29;;;;;;;6.82;1.80;;;;;;;;;;5111419;28;20038;-69
2022/04/18 09:06:10;;;;;;;8.93;1.48;;;;;;;;;;5111070;28;20027;-69
2022/04/18 09:08:54;;;;;;;4.93;1.55;;;;;;;;;;5110840;28;20399;-72
2022/04/18 09:11:31;;;;;;;7.60;1.77;;;;;;;;;;5111414;28;20103;-73
2022/04/18 09:14:04;;;;;;;9.38;1.90;;;;;;;;;;5110782;28;20019;-69
2022/04/18 09:16:31;;;;;;;5.40;1.70;;;;;;;;;;5111055;28;20031;-68
2022/04/18 09:19:12;;;;;;;8.50;1.92;;;;;;;;;;5110551;28;20023;-73
2022/04/18 09:21:57;;;;;;;8.85;1.77;;;;;;;;;;5110770;28;20033;-69
2022/04/18 09:24:32;;;;;;;8.55;1.80;;;;;;;;;;5110916;28;20067;-69
2022/04/18 09:27:09;;;;;;;5.97;1.60;;;;;;;;;;5110746;28;20059;-71
2022/04/18 09:29:38;;;;;;;6.32;1.70;;;;;;;;;;5110631;28;20026;-72
2022/04/18 09:32:12;;;;;;;5.43;1.53;;;;;;;;;;5109483;28;20051;-69
2022/04/18 09:34:42;;;;;;;13.07;1.95;;;;;;;;;;5110570;28;20024;-72
2022/04/18 09:37:11;;;;;;;5.57;1.52;;;;;;;;;;5110746;28;20058;-69
2022/04/18 09:39:36;;;;;;;8.07;1.70;;;;;;;;;;5110479;28;20016;-68
2022/04/18 09:42:12;;;;;;;7.40;1.60;;;;;;;;;;5110671;28;20023;-73
2022/04/18 09:44:38;;;;;;;8.52;1.70;;;;;;;;;;5110643;28;20403;-72
2022/04/18 09:47:04;;;;;;;5.47;1.90;;;;;;;;;;5110308;28;20020;-69
2022/04/18 09:49:40;;;;;;;6.18;1.90;;;;;;;;;;5109946;28;20451;-71
2022/04/18 09:52:08;;;;;;;9.07;1.75;;;;;;;;;;5109552;28;20028;-69
2022/04/18 09:54:33;;;;;;;6.40;1.80;;;;;;;;;;5110451;28;20019;-69
2022/04/18 09:57:08;;;;;;;5.72;1.80;;;;;;;;;;5110401;28;20043;-69
2022/04/18 09:59:34;;;;;;;12.43;2.03;;;;;;;;;;5110126;28;20379;-70
2022/04/18 10:02:01;;;;;;;7.50;1.52;;;;;;;;;;5110294;28;20262;-71
2022/04/18 10:04:26;;;;;;;4.00;1.50;;;;;;;;;;5110209;28;20076;-72
2022/04/18 10:06:57;;;;;;;6.45;1.85;;;;;;;;;;5110235;28;20019;-70
2022/04/18 10:09:24;;;;;;;8.88;2.08;;;;;;;;;;5110080;28;20073;-70
2022/04/18 10:11:51;;;;;;;5.97;1.70;;;;;;;;;;5110206;28;20023;-72
2022/04/18 10:14:17;;;;;;;5.57;1.67;;;;;;;;;;5110602;28;20027;-74
2022/04/18 10:16:43;;;;;;;7.20;1.85;;;;;;;;;;5110150;28;20019;-73
2022/04/18 10:19:46;;;;;;;10.93;2.00;;;;;;;;;;5110255;28;20085;-69
2022/04/18 10:22:59;;;;;;;4.78;1.85;;;;;;;;;;5110068;28;20035;-69
2022/04/18 10:25:33;;;;;;;7.20;1.67;;;;;;;;;;5109983;28;20043;-68
2022/04/18 10:28:08;;;;;;;5.25;1.70;;;;;;;;;;5110023;28;20116;-72
2022/04/18 10:30:37;;;;;;;6.07;1.50;;;;;;;;;;5109756;28;20020;-69
2022/04/18 10:33:04;;;;;;;6.45;1.48;;;;;;;;;;5109928;28;20027;-68
2022/04/18 10:35:29;;;;;;;8.30;1.90;;;;;;;;;;5110060;28;20168;-68
2022/04/18 10:37:55;;;;;;;5.22;1.70;;;;;;;;;;5109872;28;20063;-69
2022/04/18 10:40:23;;;;;;;4.45;1.50;;;;;;;;;;5109967;28;20080;-68
2022/04/18 10:42:48;;;;;;;8.02;1.60;;;;;;;;;;5109690;28;20080;-75
2022/04/18 10:45:19;;;;;;;5.40;1.70;;;;;;;;;;5109645;28;20027;-72
2022/04/18 10:48:00;;;;;;;6.72;1.77;;;;;;;;;;5109693;28;20027;-72
2022/04/18 10:50:43;;;;;;;7.22;1.60;;;;;;;;;;5110056;28;20436;-73
2022/04/18 10:53:17;;;;;;;6.78;2.00;;;;;;;;;;5109787;28;20479;-73
2022/04/18 10:55:51;;;;;;;6.63;1.67;;;;;;;;;;5109605;28;20068;-72
2022/04/18 10:58:21;;;;;;;10.55;1.90;;;;;;;;;;5109587;28;20044;-68
2022/04/18 11:00:50;;;;;;;8.40;1.65;;;;;;;;;;5109245;28;20031;-69
2022/04/18 11:03:46;;;;;;;5.43;1.67;;;;;;;;;;5110577;28;20422;-70
2022/04/18 11:06:18;;;;;;;6.53;1.60;;;;;;;;;;5113406;28;20398;-71
2022/04/18 11:09:16;;;;;;;8.38;1.55;;;;;;;;;;5113192;28;20034;-68
2022/04/18 11:11:52;;;;;;;10.88;1.65;;;;;;;;;;5113383;28;20034;-68
2022/04/18 11:14:20;;;;;;;8.32;1.50;;;;;;;;;;5113274;28;20059;-73
2022/04/18 11:16:48;;;;;;;5.90;1.80;;;;;;;;;;5113117;28;20034;-71
2022/04/18 11:19:13;;;;;;;8.43;1.50;;;;;;;;;;5113097;28;20030;-68
2022/04/18 11:21:57;;;;;;;5.80;1.65;;;;;;;;;;5113339;27;20023;-73
2022/04/18 11:24:42;;;;;;;5.30;1.70;;;;;;;;;;5113069;28;20494;-72
2022/04/18 11:27:26;;;;;;;8.60;1.80;;;;;;;;;;5113008;28;20039;-71
2022/04/18 11:29:55;;;;;;;6.57;2.00;;;;;;;;;;5112795;28;20039;-70
2022/04/18 11:32:23;;;;;;;6.70;1.73;;;;;;;;;;5112828;28;20027;-69
2022/04/18 11:34:52;;;;;;;7.78;1.80;;;;;;;;;;5112628;28;20024;-68
2022/04/18 11:37:44;;;;;;;6.95;1.60;;;;;;;;;;5112852;28;20483;-68
2022/04/18 11:40:11;;;;;;;5.80;1.70;;;;;;;;;;5112701;28;20476;-69
2022/04/18 11:42:39;;;;;;;4.70;1.50;;;;;;;;;;5112877;28;20590;-75
2022/04/18 11:45:07;;;;;;;5.60;1.50;;;;;;;;;;5112816;28;20170;-68
2022/04/18 11:47:43;;;;;;;6.22;1.60;;;;;;;;;;5112659;28;20030;-72
2022/04/18 11:50:09;;;;;;;7.18;1.60;;;;;;;;;;5112573;27;20487;-69
2022/04/18 11:52:37;;;;;;;8.75;1.63;;;;;;;;;;5112665;28;20068;-72
2022/04/18 11:55:05;;;;;;;5.72;1.50;;;;;;;;;;5112498;28;20053;-68
2022/04/18 11:57:36;;;;;;;6.05;1.80;;;;;;;;;;5112528;28;20368;-67
2022/04/18 12:00:06;;;;;;;4.30;1.60;;;;;;;;;;5112099;28;20024;-72
2022/04/18 12:08:03;;;;;;;9.70;1.70;;;;;;;;;;5112280;28;20070;-71
2022/04/18 12:10:35;;;;;;;11.77;1.90;;;;;;;;;;5111792;28;20051;-72
2022/04/18 12:13:08;;;;;;;7.72;1.73;;;;;;;;;;5112020;28;20084;-72
2022/04/18 12:15:35;;;;;;;8.30;1.83;;;;;;;;;;5111222;28;20038;-68
2022/04/18 12:18:10;;;;;;;6.43;1.80;;;;;;;;;;5112228;28;20115;-68
2022/04/18 12:20:40;;;;;;;6.45;1.75;;;;;;;;;;5111936;28;20057;-68
2022/04/18 12:23:06;;;;;;;6.72;2.00;;;;;;;;;;5111861;28;20028;-73
2022/04/18 12:25:33;;;;;;;4.75;1.60;;;;;;;;;;5111624;27;20043;-71
2022/04/18 12:28:03;;;;;;;8.32;1.70;;;;;;;;;;5110245;27;20035;-69
2022/04/18 12:30:28;;;;;;;7.30;1.50;;;;;;;;;;5111661;27;20503;-72
2022/04/18 12:32:54;;;;;;;7.15;1.67;;;;;;;;;;5112036;28;20032;-73
2022/04/18 12:35:36;;;;;;;5.03;1.40;;;;;;;;;;5111821;27;20425;-72
2022/04/18 12:38:04;;;;;;;5.28;1.73;;;;;;;;;;5111633;28;20035;-68
2022/04/18 12:40:54;;;;;;;6.47;1.63;;;;;;;;;;5111428;28;20260;-70
2022/04/18 12:43:20;;;;;;;5.30;1.50;;;;;;;;;;5108449;28;20081;-72
2022/04/18 12:45:51;;;;;;;8.63;1.60;;;;;;;;;;5111349;28;20023;-68
2022/04/18 12:48:28;;;;;;;7.25;1.50;;;;;;;;;;5111403;28;20027;-71
2022/04/18 12:50:56;;;;;;;6.15;1.67;;;;;;;;;;5111792;28;20032;-68
2022/04/18 12:53:42;;;;;;;4.68;1.55;;;;;;;;;;5111474;28;20015;-72
2022/04/18 12:56:07;;;;;;;6.05;1.77;;;;;;;;;;5111157;28;20024;-70
2022/04/18 12:58:40;;;;;;;6.22;1.70;;;;;;;;;;5110999;28;20436;-68
2022/04/18 13:01:06;;;;;;;5.13;1.60;;;;;;;;;;5110806;28;20024;-71
2022/04/18 13:03:44;;;;;;;6.13;1.45;;;;;;;;;;5111238;28;20019;-72
2022/04/18 13:06:11;;;;;;;6.50;1.55;;;;;;;;;;5111327;28;20093;-67
2022/04/18 13:08:38;;;;;;;7.40;1.60;;;;;;;;;;5111091;28;20032;-70
2022/04/18 13:11:04;;;;;;;7.35;1.70;;;;;;;;;;5110790;28;20019;-69
2022/04/18 13:13:29;;;;;;;7.38;1.55;;;;;;;;;;5110909;28;20455;-73
2022/04/18 13:15:55;;;;;;;7.93;1.58;;;;;;;;;;5110907;28;20031;-69
2022/04/18 13:18:26;;;;;;;7.18;1.40;;;;;;;;;;5111007;28;20459;-70
2022/04/18 13:20:52;;;;;;;6.45;1.42;;;;;;;;;;5110649;28;20445;-73
2022/04/18 13:23:19;;;;;;;4.05;1.50;;;;;;;;;;5110805;28;20034;-69
2022/04/18 13:25:45;;;;;;;7.43;1.58;;;;;;;;;;5110562;28;20511;-69
2022/04/18 13:28:11;;;;;;;4.70;1.33;;;;;;;;;;5110630;28;20508;-71
2022/04/18 13:30:38;;;;;;;7.50;1.60;;;;;;;;;;5110357;28;20158;-72
2022/04/18 13:33:05;;;;;;;9.82;1.70;;;;;;;;;;5110447;28;20043;-74
2022/04/18 13:35:34;;;;;;;6.72;1.65;;;;;;;;;;5110841;28;20030;-71
2022/04/18 13:37:59;;;;;;;6.20;1.45;;;;;;;;;;5109197;28;20046;-70
2022/04/18 13:40:26;;;;;;;5.68;1.63;;;;;;;;;;5110621;28;20463;-71
2022/04/18 13:42:51;;;;;;;3.58;1.40;;;;;;;;;;5110527;28;20027;-74
2022/04/18 13:45:17;;;;;;;5.30;1.50;;;;;;;;;;5110534;28;20024;-68
2022/04/18 13:47:43;;;;;;;7.57;1.60;;;;;;;;;;5110566;28;20023;-69
2022/04/18 13:50:11;;;;;;;4.82;1.50;;;;;;;;;;5110221;28;20107;-73
2022/04/18 13:52:40;;;;;;;9.85;1.60;;;;;;;;;;5110598;28;20472;-69
2022/04/18 13:55:09;;;;;;;6.72;1.50;;;;;;;;;;5110376;28;20555;-69
2022/04/18 13:57:36;;;;;;;4.20;1.30;;;;;;;;;;5110603;28;20046;-69
2022/04/18 14:00:03;;;;;;;3.55;1.42;;;;;;;;;;5110147;28;20019;-68
2022/04/18 14:02:29;;;;;;;4.35;1.67;;;;;;;;;;5110535;28;20391;-74
2022/04/18 14:04:54;;;;;;;7.68;1.60;;;;;;;;;;5110355;28;20475;-71
2022/04/18 14:07:20;;;;;;;3.65;1.20;;;;;;;;;;5110182;28;20076;-73
2022/04/18 14:09:45;;;;;;;5.93;1.45;;;;;;;;;;5110004;28;20020;-73
2022/04/18 14:12:11;;;;;;;4.47;1.30;;;;;;;;;;5110453;28;20019;-70
2022/04/18 14:20:25;;;;;;;6.70;1.60;;;;;;;;;;5110166;28;20092;-72
2022/04/18 14:22:52;;;;;;;5.05;1.40;;;;;;;;;;5110182;28;20024;-69
2022/04/18 14:25:19;;;;;;;4.95;1.75;;;;;;;;;;5108444;28;20055;-72
2022/04/18 14:27:45;;;;;;;10.48;1.75;;;;;;;;;;5109973;28;20035;-72
2022/04/18 14:30:13;;;;;;;9.00;1.50;;;;;;;;;;5109922;28;20059;-71
2022/04/18 14:32:42;;;;;;;6.85;1.60;;;;;;;;;;5110194;28;20023;-69
2022/04/18 14:35:09;;;;;;;6.83;1.50;;;;;;;;;;5110276;28;20031;-71
2022/04/18 14:37:36;;;;;;;6.93;1.40;;;;;;;;;;5108855;28;20019;-70
2022/04/18 14:40:02;;;;;;;4.03;1.35;;;;;;;;;;5113648;28;20383;-69
2022/04/18 14:42:28;;;;;;;5.65;1.52;;;;;;;;;;5113883;28;20024;-68
2022/04/18 14:44:54;;;;;;;6.05;1.65;;;;;;;;;;5113683;28;20616;-72
2022/04/18 14:47:20;;;;;;;5.60;1.50;;;;;;;;;;5114098;28;20098;-69
2022/04/18 14:49:46;;;;;;;3.90;1.40;;;;;;;;;;5112437;28;20109;-68
2022/04/18 14:52:12;;;;;;;6.20;1.60;;;;;;;;;;5113946;28;20165;-73
2022/04/18 14:54:37;;;;;;;8.90;1.83;;;;;;;;;;5113753;28;20035;-70
2022/04/18 14:57:06;;;;;;;4.40;1.40;;;;;;;;;;5113579;28;20103;-68
2022/04/18 14:59:33;;;;;;;5.78;1.50;;;;;;;;;;5113473;27;20104;-68
2022/04/18 15:01:59;;;;;;;10.20;1.90;;;;;;;;;;5113610;28;20257;-70
2022/04/18 15:04:25;;;;;;;4.88;1.60;;;;;;;;;;5113621;28;20304;-70
2022/04/18 15:06:51;;;;;;;5.82;1.50;;;;;;;;;;5112234;28;20432;-70
2022/04/18 15:09:16;;;;;;;3.28;1.50;;;;;;;;;;5113748;28;20478;-73
2022/04/18 15:11:45;;;;;;;3.10;1.05;;;;;;;;;;5113148;28;20089;-73
2022/04/18 15:14:14;;;;;;;6.63;1.42;;;;;;;;;;5113166;28;20652;-70
2022/04/18 15:16:40;;;;;;;4.97;1.48;;;;;;;;;;5113392;28;20574;-71